Anthony, NM

9:08 AM MDT on October 23, 2014 (GMT -0600)
Thunderbird | Change Station
CLOSE
Current Station
Personal Weather Station
Location: El Paso, TX
Elevation: 4623 ft
Nearby Weather Stations

Elev 4623 ft 31.86 °N, 106.51 °W | Updated 1 minute ago

Clear
Clear
74.1 °F
Feels Like 77 °F
N
0.0
Wind Variable Wind from North
Gusts 0.0 mph

Today
High -- | Low -- °F
--% Chance of Precip.
Yesterday
High -- | Low -- °F
Precip. -- in
7:15 AM 6:24 PM
Waning Crescent, 0% visible
Pressure 30.09 in
Visibility 10.0 miles
Clouds Clear
Heat Index 77 °F
Dew Point 56 °F
Humidity 53%
Rainfall 0.00 in
Snow Depth Not available.
UV 1 out of 12
Pollen 5.20 out of 12
Air Quality Not available.
Flu Activity Sporadic
METAR KBIF 231458Z 02002KT 10SM CLR 17/13 A3022 RMK AO2A SLP190 T01650127 52017

More Conditions Fewer Conditions

Pressure 30.09 in
Visibility 10.0 miles
Clouds Clear
Heat Index 77 °F
Dew Point 56 °F
Humidity 53%
Rainfall 0.00 in
Snow Depth Not available.
UV 1 out of 12
Pollen 5.20 out of 12
Air Quality Not available.
Flu Activity Sporadic
METAR KBIF 231458Z 02002KT 10SM CLR 17/13 A3022 RMK AO2A SLP190 T01650127 52017

More Conditions Fewer Conditions

10-Day Weather Forecast

Almanac

Astronomy

Oct. 23, 2014 Rise Set
Actual Time 7:15 AM MDT 6:24 PM MDT
Civil Twilight 6:50 AM MDT 6:49 PM MDT
Nautical Twilight 6:21 AM MDT 7:18 PM MDT
Astronomical Twilight 5:53 AM MDT 7:46 PM MDT
Moon 6:58 AM MDT 6:28 PM MDT
Length of Visible Light 11h 59m
Length of Day
11h 09m
Tomorrow will be 1m 48s shorter.
Waning Crescent, 0% of the Moon is Illuminated
Today
Waning Crescent
Oct 23
New
Oct 30
First Quarter
Nov 6
Full
Nov 14
Last Quarter

Today's Extremes

State Highs State Lows

Community

WunderPhotos

Upload Photos

1,764,277 photos uploaded!

Nearby

Snow Depth

Station Depth Elevation
McKnight Cabin 0 in 9240 ft
Sierra Blanca 1 in 10280 ft
Signal Peak 0 in 8360 ft
Lookout Mountain 0 in 8500 ft
Silver Creek Divide 1 in 9000 ft

Earthquake Activity

City Distance Mag. Time & Date
No recent earthquake activity has been reported nearby.
Minimum magnitude displayed is 2.5.

Coastal Water Temperatures

Place Temperature
No Stations Reporting

Nearby Weather Stations